Time;durP1;ratioP1;P1;durP2;ratioP2;P2;SDS_P1;SDS_P2;PMS_P1;PMS_P2;Temp;Humidity;BMP_temperature;BMP_pressure;BME280_temperature;BME280_humidity;BME280_pressure;Samples;Min_cycle;Max_cycle;Signal;HPM_P1;HPM_P2
2023/04/11 00:01:58;;;;;;;7.17;5.27;;;;;;;7.90;67.89;96034.94;10412745;28;20645;-73
2023/04/11 00:06:59;;;;;;;7.77;5.73;;;;;;;7.92;67.56;96013.91;10413382;28;20672;-73
2023/04/11 00:12:00;;;;;;;7.63;5.57;;;;;;;7.95;67.52;96040.50;10411989;28;20250;-73
2023/04/11 00:17:01;;;;;;;6.90;4.50;;;;;;;7.99;67.45;96038.38;10395232;28;20716;-73
2023/04/11 00:22:01;;;;;;;6.27;5.00;;;;;;;7.86;68.24;96013.56;10394373;28;20239;-73
2023/04/11 00:27:02;;;;;;;8.40;5.87;;;;;;;7.75;68.75;96015.63;10394806;28;20197;-73
2023/04/11 00:32:02;;;;;;;7.17;4.97;;;;;;;7.71;68.90;96027.34;10411987;28;20300;-72
2023/04/11 00:37:03;;;;;;;9.50;6.63;;;;;;;7.67;69.26;95996.38;10411446;28;20220;-73
2023/04/11 00:42:05;;;;;;;7.33;5.80;;;;;;;7.85;68.64;95998.88;10411661;28;20236;-73
2023/04/11 00:47:06;;;;;;;7.10;4.63;;;;;;;7.81;68.23;95966.28;10392857;28;20185;-73
2023/04/11 00:52:06;;;;;;;11.37;5.63;;;;;;;7.94;68.33;95970.22;10393177;28;20653;-73
2023/04/11 00:57:07;;;;;;;8.87;6.13;;;;;;;7.90;68.44;95958.47;10394094;28;20200;-73
2023/04/11 01:02:08;;;;;;;8.40;6.43;;;;;;;7.92;68.31;95970.38;10409238;28;20196;-73
2023/04/11 01:07:09;;;;;;;8.00;5.07;;;;;;;8.00;67.97;95964.38;10410341;28;20454;-73
2023/04/11 01:12:10;;;;;;;8.37;4.00;;;;;;;7.93;68.46;95963.38;10409801;28;20370;-73
2023/04/11 01:17:12;;;;;;;9.10;6.23;;;;;;;8.02;68.15;95968.47;10393788;28;20219;-73
2023/04/11 01:22:16;;;;;;;7.20;5.17;;;;;;;8.08;68.15;95982.66;10408981;28;20197;-73
2023/04/11 01:27:17;;;;;;;6.03;3.93;;;;;;;8.08;68.15;95971.41;10410168;28;20207;-73
2023/04/11 01:32:18;;;;;;;7.00;5.90;;;;;;;7.98;68.67;95993.22;10375960;28;20203;-73
2023/04/11 01:37:18;;;;;;;6.77;5.63;;;;;;;8.06;67.70;95961.13;10392102;28;20291;-73
2023/04/11 01:42:20;;;;;;;6.60;4.00;;;;;;;8.09;67.47;95960.81;10409344;28;20228;-73
2023/04/11 01:47:21;;;;;;;6.43;3.93;;;;;;;8.03;67.46;95980.53;10408482;28;20199;-73
2023/04/11 01:52:23;;;;;;;7.47;5.20;;;;;;;8.00;67.60;95957.38;10409441;28;20184;-72
2023/04/11 01:57:24;;;;;;;6.70;4.53;;;;;;;7.86;68.32;95937.94;10407821;28;20633;-73
2023/04/11 02:02:24;;;;;;;7.23;5.60;;;;;;;7.88;68.21;95918.72;10390618;28;20212;-73
2023/04/11 02:07:25;;;;;;;5.73;4.10;;;;;;;7.93;67.52;95906.84;10409361;28;20231;-73
2023/04/11 02:12:25;;;;;;;7.20;4.90;;;;;;;7.95;66.61;95862.34;10389738;28;20292;-73
2023/04/11 02:17:29;;;;;;;5.80;4.13;;;;;;;7.99;65.81;95832.34;10408892;28;20184;-73
2023/04/11 02:22:30;;;;;;;5.73;4.17;;;;;;;8.02;65.04;95800.72;10407840;28;20661;-73
2023/04/11 02:27:31;;;;;;;6.57;4.83;;;;;;;8.06;63.80;95775.94;10388975;28;20209;-73
2023/04/11 02:32:36;;;;;;;5.87;4.10;;;;;;;8.14;63.16;95744.63;10407229;28;20510;-73
2023/04/11 02:37:36;;;;;;;5.70;4.03;;;;;;;8.13;63.25;95743.00;10407417;28;20224;-73
2023/04/11 02:42:39;;;;;;;5.03;4.53;;;;;;;8.08;63.75;95737.44;10407195;28;20228;-72
2023/04/11 02:47:40;;;;;;;7.00;4.27;;;;;;;8.00;64.30;95743.50;10390572;28;20200;-73
2023/04/11 02:52:43;;;;;;;8.33;4.77;;;;;;;7.91;65.15;95785.41;10373704;28;20212;-73
2023/04/11 02:57:44;;;;;;;6.20;4.07;;;;;;;7.91;65.21;95761.94;10406530;28;20192;-73
2023/04/11 03:02:48;;;;;;;7.17;5.83;;;;;;;7.87;65.79;95758.81;10395887;28;20215;-73
2023/04/11 03:07:51;;;;;;;7.73;5.20;;;;;;;7.80;65.92;95771.69;10426123;28;20279;-73
2023/04/11 03:12:52;;;;;;;8.80;5.07;;;;;;;7.91;65.45;95754.91;10444652;28;20702;-73
2023/04/11 03:17:52;;;;;;;5.53;4.20;;;;;;;7.93;65.53;95749.53;10432619;28;20610;-73
2023/04/11 03:22:53;;;;;;;6.17;4.03;;;;;;;7.92;65.50;95748.72;10450296;28;20226;-74
2023/04/11 03:27:54;;;;;;;5.77;4.37;;;;;;;7.82;66.30;95767.13;10431928;28;20183;-73
2023/04/11 03:32:59;;;;;;;7.60;5.33;;;;;;;7.70;67.32;95765.00;10431537;28;20208;-73
2023/04/11 03:38:00;;;;;;;7.40;5.60;;;;;;;7.64;67.10;95776.88;10431113;28;20192;-73
2023/04/11 03:43:00;;;;;;;6.90;4.90;;;;;;;7.59;67.93;95769.56;10431317;28;20231;-73
2023/04/11 03:48:05;;;;;;;8.97;5.50;;;;;;;7.50;68.31;95778.34;10431605;28;20283;-73
2023/04/11 03:53:19;;;;;;;7.47;5.87;;;;;;;7.44;69.14;95776.38;10430310;28;20211;-73
2023/04/11 03:58:21;;;;;;;5.73;4.43;;;;;;;7.40;69.56;95801.13;10430579;28;20691;-73
2023/04/11 04:03:21;;;;;;;8.10;6.63;;;;;;;7.37;69.42;95778.00;10433644;28;20190;-73
2023/04/11 04:08:22;;;;;;;7.67;5.97;;;;;;;7.38;69.30;95775.25;10437289;28;20199;-73
2023/04/11 04:13:26;;;;;;;5.20;3.97;;;;;;;7.30;70.44;95790.84;10436446;28;21098;-73
2023/04/11 04:18:36;;;;;;;7.47;6.03;;;;;;;7.29;71.04;95799.66;10436878;28;20262;-73
2023/04/11 04:23:38;;;;;;;5.10;3.83;;;;;;;7.12;73.73;95833.44;10434590;28;20400;-73
2023/04/11 04:29:08;;;;;;;9.03;6.20;;;;;;;6.70;78.73;95899.28;10440522;28;20200;-73
2023/04/11 04:34:23;;;;;;;8.60;6.20;;;;;;;6.33;83.65;95904.69;10453506;28;20219;-73
2023/04/11 04:39:24;;;;;;;8.37;5.90;;;;;;;6.11;88.43;95899.00;10435597;28;20191;-73
2023/04/11 04:44:26;;;;;;;11.17;7.47;;;;;;;5.85;95.41;95898.84;10435354;28;20259;-73
2023/04/11 04:49:30;;;;;;;11.73;7.50;;;;;;;5.70;100.00;95898.56;10435063;28;20188;-73
2023/04/11 04:54:30;;;;;;;11.50;7.23;;;;;;;5.50;100.00;95896.06;10434996;28;20223;-73
2023/04/11 04:59:31;;;;;;;10.20;7.47;;;;;;;5.44;100.00;95880.25;10406949;28;20203;-73
2023/04/11 05:04:40;;;;;;;11.03;7.30;;;;;;;5.30;100.00;95886.75;10434588;28;20182;-73
2023/04/11 05:09:41;;;;;;;11.20;6.67;;;;;;;5.27;100.00;95890.44;10433628;28;20192;-73
2023/04/11 05:14:47;;;;;;;12.27;7.80;;;;;;;5.28;100.00;95875.66;10434052;28;20703;-73
2023/04/11 05:19:47;;;;;;;12.97;8.93;;;;;;;5.23;100.00;95875.28;10452048;28;20187;-73
2023/04/11 05:24:48;;;;;;;11.30;7.90;;;;;;;5.13;100.00;95873.56;10433167;28;20189;-73
2023/04/11 05:29:50;;;;;;;9.57;7.17;;;;;;;5.11;100.00;95861.66;10433867;28;20184;-73
2023/04/11 05:34:53;;;;;;;12.63;6.93;;;;;;;5.13;100.00;95862.34;10432131;28;20219;-73
2023/04/11 05:39:59;;;;;;;13.20;8.13;;;;;;;5.12;100.00;95858.13;10432889;28;20699;-73
2023/04/11 05:45:00;;;;;;;10.57;7.20;;;;;;;5.14;100.00;95849.22;10450615;28;20192;-73
2023/04/11 05:50:01;;;;;;;12.50;8.73;;;;;;;5.16;100.00;95849.06;10432597;28;20198;-73
2023/04/11 05:55:03;;;;;;;11.97;9.30;;;;;;;5.19;100.00;95843.59;10410640;28;20704;-73
2023/04/11 06:00:15;;;;;;;13.23;8.00;;;;;;;5.25;100.00;95837.81;10409223;28;20216;-73
2023/04/11 06:05:16;;;;;;;11.33;7.63;;;;;;;5.35;100.00;95830.78;10408985;28;20185;-73
2023/04/11 06:10:16;;;;;;;15.60;8.43;;;;;;;5.42;100.00;95836.22;10408256;28;20185;-73
2023/04/11 06:15:17;;;;;;;21.40;12.97;;;;;;;5.45;100.00;95848.09;10409405;28;20306;-74
2023/04/11 06:20:18;;;;;;;22.70;11.57;;;;;;;5.54;100.00;95855.00;10408353;28;20199;-73
2023/04/11 06:25:20;;;;;;;27.30;15.37;;;;;;;5.59;100.00;95839.81;10416588;28;20187;-72
2023/04/11 06:30:20;;;;;;;29.50;15.60;;;;;;;5.50;100.00;95859.69;10449607;28;20594;-72
2023/04/11 06:35:23;;;;;;;14.07;9.83;;;;;;;5.41;100.00;95865.75;10449307;28;20276;-73
2023/04/11 06:40:24;;;;;;;13.53;9.83;;;;;;;5.59;100.00;95868.41;10439598;28;20277;-72
2023/04/11 06:45:24;;;;;;;20.77;13.07;;;;;;;5.61;100.00;95881.25;10444145;28;20656;-72
2023/04/11 06:50:25;;;;;;;17.60;11.70;;;;;;;5.63;100.00;95895.69;10446749;28;20561;-73
2023/04/11 06:55:25;;;;;;;18.43;12.63;;;;;;;5.55;100.00;95903.41;10443447;28;20254;-73
2023/04/11 07:00:26;;;;;;;18.13;11.33;;;;;;;5.66;100.00;95920.59;10448875;28;20249;-73
2023/04/11 07:05:26;;;;;;;16.63;11.80;;;;;;;5.52;100.00;95943.47;10451425;28;20600;-74
2023/04/11 07:10:27;;;;;;;15.20;8.77;;;;;;;5.56;100.00;95943.19;10441362;28;20591;-75
2023/04/11 07:15:27;;;;;;;11.97;8.70;;;;;;;5.62;100.00;95974.63;10452463;28;20830;-75
2023/04/11 07:20:27;;;;;;;10.70;6.70;;;;;;;5.55;100.00;95981.34;10426794;28;20220;-74
2023/04/11 07:25:32;;;;;;;8.77;5.53;;;;;;;5.62;100.00;95977.22;10420583;28;20245;-77
2023/04/11 07:30:34;;;;;;;7.07;4.90;;;;;;;5.63;100.00;95973.66;10451761;28;20625;-75
2023/04/11 07:35:35;;;;;;;7.63;4.70;;;;;;;5.68;100.00;95971.47;10464565;28;20315;-75
2023/04/11 07:40:35;;;;;;;6.80;4.67;;;;;;;5.64;100.00;95977.09;10472619;28;20774;-74
2023/04/11 07:45:35;;;;;;;5.90;4.10;;;;;;;5.75;100.00;95965.69;10470688;28;20190;-76
2023/04/11 07:50:36;;;;;;;6.20;3.87;;;;;;;5.79;100.00;95964.41;10472226;28;20184;-76
2023/04/11 07:55:36;;;;;;;5.17;3.67;;;;;;;5.79;100.00;95951.41;10466059;28;20302;-76
2023/04/11 08:00:37;;;;;;;6.50;4.10;;;;;;;5.90;100.00;95959.03;10455221;28;20190;-75
2023/04/11 08:05:37;;;;;;;5.47;4.13;;;;;;;5.99;100.00;95963.38;10469955;28;20196;-76
2023/04/11 08:10:38;;;;;;;4.97;3.77;;;;;;;6.05;100.00;95960.19;10452985;28;20204;-76
2023/04/11 08:15:38;;;;;;;6.20;4.27;;;;;;;6.02;100.00;95957.88;10450255;28;20245;-75
2023/04/11 08:20:39;;;;;;;3.83;3.13;;;;;;;5.99;100.00;95952.16;10450194;28;20608;-75
2023/04/11 08:25:40;;;;;;;3.83;3.07;;;;;;;6.06;100.00;95941.03;10440560;28;20286;-75
2023/04/11 08:30:41;;;;;;;5.83;2.70;;;;;;;6.15;100.00;95923.72;10450273;28;20199;-75
2023/04/11 08:35:41;;;;;;;4.40;2.43;;;;;;;6.25;100.00;95901.06;10451346;28;20695;-75
2023/04/11 08:40:42;;;;;;;3.93;2.27;;;;;;;6.07;100.00;95910.63;10451346;28;20754;-74
2023/04/11 08:45:42;;;;;;;3.80;2.00;;;;;;;6.15;100.00;95921.09;10452388;28;20188;-74
2023/04/11 08:50:43;;;;;;;3.47;2.00;;;;;;;6.39;100.00;95927.50;10451010;28;20196;-74
2023/04/11 08:55:45;;;;;;;4.90;1.93;;;;;;;6.51;100.00;95933.28;10449982;28;20307;-74
2023/04/11 09:00:45;;;;;;;4.17;1.90;;;;;;;6.55;100.00;95935.44;10452776;28;20229;-74
2023/04/11 09:05:46;;;;;;;6.53;2.07;;;;;;;6.38;100.00;95934.47;10416406;28;20219;-74
2023/04/11 09:10:46;;;;;;;2.00;1.60;;;;;;;6.06;100.00;95958.41;10448966;28;20322;-74
2023/04/11 09:15:47;;;;;;;4.43;2.07;;;;;;;5.97;100.00;95941.91;10452116;28;20293;-73
2023/04/11 09:20:58;;;;;;;16.67;5.80;;;;;;;6.12;100.00;95924.00;10452365;28;20223;-75
2023/04/11 09:25:58;;;;;;;5.27;2.30;;;;;;;6.26;100.00;95930.47;10450419;28;20605;-74
2023/04/11 09:30:58;;;;;;;1.33;1.23;;;;;;;6.54;100.00;95896.53;10451008;28;20195;-74
2023/04/11 09:35:59;;;;;;;7.17;2.03;;;;;;;6.56;100.00;95886.81;10433308;28;20286;-74
2023/04/11 09:41:01;;;;;;;5.53;2.03;;;;;;;6.94;100.00;95890.81;10447803;28;20242;-74
2023/04/11 09:46:17;;;;;;;10.80;3.03;;;;;;;7.78;100.00;95901.41;10447803;28;20675;-74
2023/04/11 09:51:18;;;;;;;4.50;2.27;;;;;;;7.72;100.00;95901.22;10445895;28;20190;-73
2023/04/11 09:56:18;;;;;;;5.33;2.43;;;;;;;7.50;100.00;95883.41;10446520;28;20299;-74
2023/04/11 10:01:19;;;;;;;3.57;1.90;;;;;;;7.77;100.00;95881.53;10442371;28;20226;-73
2023/04/11 10:06:43;;;;;;;5.63;2.03;;;;;;;7.84;100.00;95879.91;10445381;28;20185;-74
2023/04/11 10:11:44;;;;;;;9.80;2.73;;;;;;;8.56;100.00;95876.72;10425937;28;20195;-73
2023/04/11 10:17:16;;;;;;;4.20;2.00;;;;;;;8.98;98.43;95847.94;10447816;28;20215;-73
2023/04/11 10:22:49;;;;;;;5.50;2.30;;;;;;;8.38;96.85;95821.25;10447090;28;20207;-73
2023/04/11 10:27:52;;;;;;;5.37;2.33;;;;;;;8.04;97.71;95856.16;10426420;28;20204;-73
2023/04/11 10:33:08;;;;;;;5.67;2.33;;;;;;;8.98;93.76;95837.47;10446882;28;20721;-73
2023/04/11 10:38:40;;;;;;;7.10;2.27;;;;;;;9.38;92.78;95827.84;10447310;28;20191;-73
2023/04/11 10:43:40;;;;;;;6.33;2.60;;;;;;;9.68;88.52;95804.47;10446626;28;20235;-74
2023/04/11 10:48:57;;;;;;;8.03;2.00;;;;;;;9.15;88.11;95797.25;10444690;28;20191;-73
2023/04/11 10:53:59;;;;;;;7.23;2.53;;;;;;;10.00;80.43;95731.00;10443382;28;20226;-73
2023/04/11 10:58:59;;;;;;;5.37;1.97;;;;;;;10.62;83.63;95799.81;10428119;28;20648;-74
2023/04/11 11:03:59;;;;;;;5.30;1.67;;;;;;;9.31;88.37;95929.66;10443124;28;20250;-74
2023/04/11 11:09:22;;;;;;;1.83;1.30;;;;;;;6.41;100.00;96004.41;10446044;28;20184;-74
2023/04/11 11:14:31;;;;;;;6.97;1.80;;;;;;;5.16;100.00;95929.53;10442876;28;20614;-75
2023/04/11 11:19:32;;;;;;;4.13;1.60;;;;;;;5.31;100.00;95922.13;10445663;28;20184;-74
2023/04/11 11:24:32;;;;;;;5.73;1.40;;;;;;;5.02;100.00;95928.22;10446009;28;20199;-74
2023/04/11 11:29:39;;;;;;;12.83;6.47;;;;;;;5.12;100.00;95946.38;10445992;28;20200;-74
2023/04/11 11:34:39;;;;;;;10.27;4.80;;;;;;;5.03;100.00;95970.59;10449954;28;20554;-74
2023/04/11 11:39:40;;;;;;;5.70;3.03;;;;;;;4.75;100.00;95965.31;10455326;28;20208;-74
2023/04/11 11:44:40;;;;;;;5.73;1.90;;;;;;;4.83;100.00;95970.63;10454275;28;20192;-73
2023/04/11 11:49:44;;;;;;;6.10;3.10;;;;;;;4.81;100.00;95977.75;10455091;28;20196;-73
2023/04/11 11:54:45;;;;;;;2.13;1.90;;;;;;;4.61;100.00;96019.25;10454851;28;20219;-73
2023/04/11 11:59:52;;;;;;;9.30;2.13;;;;;;;5.26;100.00;96042.00;10453883;28;20234;-74
2023/04/11 12:04:58;;;;;;;3.40;1.90;;;;;;;5.83;100.00;96057.53;10454583;28;20858;-73
2023/04/11 12:10:10;;;;;;;4.37;1.90;;;;;;;6.02;100.00;96063.69;10454915;28;20566;-73
2023/04/11 12:15:17;;;;;;;4.40;2.13;;;;;;;6.22;100.00;96046.19;10453643;28;20293;-74
2023/04/11 12:20:21;;;;;;;4.97;2.67;;;;;;;6.74;100.00;96048.16;10452797;28;20223;-74
2023/04/11 12:25:22;;;;;;;6.23;1.87;;;;;;;6.46;100.00;96043.00;10436109;28;20188;-74
2023/04/11 12:30:22;;;;;;;8.33;2.47;;;;;;;6.85;100.00;96047.13;10453539;28;20199;-74
2023/04/11 12:35:22;;;;;;;5.47;2.20;;;;;;;7.11;100.00;96026.34;10452604;28;20224;-74
2023/04/11 12:40:23;;;;;;;3.63;1.90;;;;;;;8.17;100.00;96013.00;10452927;28;20243;-74
2023/04/11 12:45:24;;;;;;;3.37;1.70;;;;;;;7.56;100.00;95994.03;10449014;28;20184;-74
2023/04/11 12:50:25;;;;;;;1.73;1.60;;;;;;;8.33;100.00;95972.25;10450326;28;20250;-73
2023/04/11 12:55:25;;;;;;;1.30;1.20;;;;;;;7.84;100.00;95999.03;10450493;28;20224;-73
2023/04/11 13:00:26;;;;;;;1.97;1.77;;;;;;;8.85;95.17;95972.03;10450646;28;20188;-74
2023/04/11 13:05:26;;;;;;;1.33;1.10;;;;;;;8.90;86.74;95922.72;10449531;28;20636;-75
2023/04/11 13:10:27;;;;;;;1.60;1.17;;;;;;;9.96;81.21;95891.13;10449966;28;20650;-76
2023/04/11 13:15:27;;;;;;;1.73;1.20;;;;;;;9.75;80.21;95908.22;10449852;28;20223;-75
2023/04/11 13:20:27;;;;;;;2.37;1.80;;;;;;;9.51;79.19;95910.94;10449440;28;20199;-75
2023/04/11 13:25:28;;;;;;;2.63;1.50;;;;;;;8.82;83.70;95954.06;10448774;28;20256;-75
2023/04/11 13:30:28;;;;;;;3.37;1.77;;;;;;;9.96;82.01;95936.41;10448928;28;20195;-75
2023/04/11 13:35:28;;;;;;;4.73;1.77;;;;;;;10.44;76.23;95872.66;10457176;28;20365;-75
2023/04/11 13:40:29;;;;;;;2.73;1.70;;;;;;;10.91;74.96;95868.94;10393736;28;1006748;-75
2023/04/11 13:45:30;;;;;;;4.30;2.00;;;;;;;9.71;78.60;95920.03;10448233;28;20616;-75
2023/04/11 13:50:32;;;;;;;2.43;1.90;;;;;;;9.44;76.07;95884.69;10447884;28;20288;-75
2023/04/11 13:55:33;;;;;;;3.30;1.80;;;;;;;9.91;74.63;95875.94;10446521;28;20256;-76
2023/04/11 14:00:34;;;;;;;2.05;1.50;;;;;;;10.64;72.94;95841.53;10450287;28;20230;-75
2023/04/11 14:05:35;;;;;;;2.75;1.70;;;;;;;11.37;67.59;95781.44;10448568;28;20238;-76
2023/04/11 14:10:38;;;;;;;2.97;1.55;;;;;;;11.62;62.32;95720.75;10447886;28;20246;-76
2023/04/11 14:15:39;;;;;;;3.28;1.40;;;;;;;11.22;61.78;95727.22;10447754;28;20228;-75
2023/04/11 14:20:39;;;;;;;2.15;1.63;;;;;;;11.74;58.13;95691.19;10448882;28;20195;-76
2023/04/11 14:25:42;;;;;;;2.15;1.58;;;;;;;12.33;60.22;95765.41;10448858;28;20195;-76
2023/04/11 14:30:43;;;;;;;2.67;1.50;;;;;;;11.57;58.80;95731.81;10448849;28;20664;-75
2023/04/11 14:35:45;;;;;;;2.90;2.00;;;;;;;9.88;63.84;95782.09;10449097;28;20227;-76
2023/04/11 14:40:49;;;;;;;6.23;1.90;;;;;;;10.19;64.53;95830.94;10446851;28;20239;-75
2023/04/11 14:45:49;;;;;;;4.93;2.90;;;;;;;9.71;65.41;95828.50;10428577;28;20921;-76
2023/04/11 14:50:50;;;;;;;5.07;2.20;;;;;;;10.60;66.07;95846.31;10428062;28;20199;-76
2023/04/11 14:55:50;;;;;;;4.45;2.65;;;;;;;10.75;66.23;95850.75;10411371;28;20215;-75
2023/04/11 15:00:51;;;;;;;5.53;2.70;;;;;;;10.05;67.55;95868.34;10445003;28;20679;-76
2023/04/11 15:05:51;;;;;;;8.65;2.20;;;;;;;11.62;64.42;95839.59;10445013;28;20636;-75
2023/04/11 15:10:52;;;;;;;5.07;2.30;;;;;;;10.94;64.89;95839.75;10454699;28;20543;-75
2023/04/11 15:15:53;;;;;;;5.40;2.92;;;;;;;10.81;64.22;95848.25;10457443;28;20235;-75
2023/04/11 15:20:55;;;;;;;8.13;3.95;;;;;;;9.96;65.53;95893.75;10456185;28;20192;-76
2023/04/11 15:25:57;;;;;;;3.93;2.00;;;;;;;8.21;68.25;95936.06;10456515;28;20703;-76
2023/04/11 15:30:58;;;;;;;2.23;1.43;;;;;;;7.77;70.71;95977.19;10455437;28;20795;-75
2023/04/11 15:35:59;;;;;;;3.07;1.40;;;;;;;7.22;75.92;96020.88;10438338;28;20224;-75
2023/04/11 15:40:59;;;;;;;4.77;1.53;;;;;;;7.49;75.93;96027.72;10455587;28;20843;-75
2023/04/11 15:46:02;;;;;;;1.90;1.47;;;;;;;7.83;74.22;95985.19;10455643;28;20187;-74
2023/04/11 15:51:08;;;;;;;4.27;1.83;;;;;;;8.82;70.88;95945.41;10438318;28;20302;-75
2023/04/11 15:56:10;;;;;;;3.00;1.73;;;;;;;9.22;71.31;95949.78;10455014;28;20208;-75
2023/04/11 16:01:19;;;;;;;3.87;2.10;;;;;;;9.13;67.66;95892.44;10452384;28;20188;-75
2023/04/11 16:06:20;;;;;;;3.20;2.00;;;;;;;9.00;69.63;95925.13;10452405;28;20595;-75
2023/04/11 16:11:20;;;;;;;10.87;4.03;;;;;;;9.47;67.21;95873.88;10454919;28;20192;-74
2023/04/11 16:16:21;;;;;;;3.73;2.17;;;;;;;9.92;66.30;95882.81;10454909;28;20298;-74
2023/04/11 16:21:23;;;;;;;5.28;4.32;;;;;;;9.97;64.20;95840.44;10453571;28;20222;-75
2023/04/11 16:26:23;;;;;;;3.17;1.60;;;;;;;8.66;67.94;95900.03;10454762;28;20180;-74
2023/04/11 16:31:24;;;;;;;2.40;1.83;;;;;;;8.68;69.14;95913.78;10454665;28;20237;-75
2023/04/11 16:36:26;;;;;;;4.60;1.80;;;;;;;8.20;71.60;95946.66;10453938;28;20696;-75
2023/04/11 16:41:26;;;;;;;4.20;2.50;;;;;;;10.27;66.05;95896.31;10453729;28;20242;-75
2023/04/11 16:46:26;;;;;;;6.63;3.40;;;;;;;11.83;64.08;95883.44;10435290;28;20218;-75
2023/04/11 16:51:27;;;;;;;3.42;2.03;;;;;;;11.55;63.01;95864.97;10452936;28;20188;-75
2023/04/11 16:56:27;;;;;;;5.15;3.42;;;;;;;9.57;68.33;95926.78;10452558;28;20226;-75
2023/04/11 17:01:27;;;;;;;6.88;4.65;;;;;;;9.50;68.13;95922.41;10433708;28;20651;-76
2023/04/11 17:06:28;;;;;;;8.23;3.40;;;;;;;8.09;74.90;96004.34;10450485;28;20735;-75
2023/04/11 17:11:28;;;;;;;3.47;2.67;;;;;;;6.85;79.57;96058.34;10450618;28;20183;-75
2023/04/11 17:16:29;;;;;;;16.63;13.07;;;;;;;6.85;82.20;96078.38;10450705;28;20212;-75
2023/04/11 17:21:30;;;;;;;7.60;3.93;;;;;;;6.90;82.29;96063.91;10452292;28;20198;-74
2023/04/11 17:26:30;;;;;;;6.97;3.70;;;;;;;6.37;84.54;96069.91;10452926;28;20215;-74
2023/04/11 17:31:31;;;;;;;7.27;3.17;;;;;;;6.01;85.71;96065.44;10452892;28;20220;-74
2023/04/11 17:36:31;;;;;;;5.60;2.10;;;;;;;5.98;86.08;96057.13;10453239;28;20232;-73
2023/04/11 17:41:32;;;;;;;4.20;2.70;;;;;;;6.09;76.25;95965.91;10452147;28;20239;-74
2023/04/11 17:46:32;;;;;;;7.03;1.80;;;;;;;6.15;76.86;96000.91;10452361;28;20216;-75
2023/04/11 17:51:39;;;;;;;5.73;2.33;;;;;;;6.04;77.66;96023.53;10451507;28;20203;-74
2023/04/11 17:56:39;;;;;;;5.67;2.20;;;;;;;5.98;80.90;96072.72;10451760;28;20278;-74
2023/04/11 18:01:40;;;;;;;5.63;2.47;;;;;;;5.84;82.88;96099.97;10492571;28;20195;-74
2023/04/11 18:06:41;;;;;;;3.90;2.43;;;;;;;5.85;84.73;96122.38;10493072;28;20227;-74
2023/04/11 18:11:42;;;;;;;10.57;6.77;;;;;;;5.91;81.46;96090.63;10492351;28;20785;-73
2023/04/11 18:16:45;;;;;;;8.93;2.90;;;;;;;5.53;81.70;96092.41;10492376;28;20600;-72
2023/04/11 18:21:47;;;;;;;6.13;1.87;;;;;;;5.56;83.59;96115.50;10493266;28;20191;-73
2023/04/11 18:26:47;;;;;;;3.80;2.13;;;;;;;5.33;82.12;96108.00;10474777;28;20184;-75
2023/04/11 18:31:48;;;;;;;5.83;3.23;;;;;;;5.12;81.27;96123.75;10493176;28;20897;-74
2023/04/11 18:36:48;;;;;;;4.03;2.50;;;;;;;5.16;81.32;96119.91;10492488;28;20569;-75
2023/04/11 18:41:48;;;;;;;3.83;2.23;;;;;;;5.26;79.20;96091.34;10491663;28;20329;-74
2023/04/11 18:46:49;;;;;;;4.90;2.70;;;;;;;5.27;79.58;96108.56;10492380;28;20663;-74
2023/04/11 18:51:51;;;;;;;4.00;2.43;;;;;;;5.25;81.28;96175.38;10492342;28;20656;-75
2023/04/11 18:56:52;;;;;;;6.33;1.97;;;;;;;5.19;87.39;96266.81;10480820;28;20234;-75
2023/04/11 19:01:52;;;;;;;5.50;2.47;;;;;;;4.94;93.61;96294.09;10449630;28;20638;-75
2023/04/11 19:06:52;;;;;;;4.20;2.23;;;;;;;4.50;100.00;96307.28;10449600;28;20184;-75
2023/04/11 19:11:53;;;;;;;5.90;2.47;;;;;;;4.44;100.00;96313.81;10449372;28;20265;-75
2023/04/11 19:16:54;;;;;;;3.50;2.63;;;;;;;4.30;100.00;96316.72;10449660;28;20231;-74
2023/04/11 19:21:55;;;;;;;5.30;2.40;;;;;;;4.08;100.00;96317.69;10448936;28;20209;-74
2023/04/11 19:26:55;;;;;;;4.53;2.50;;;;;;;4.04;100.00;96313.69;10449108;28;20279;-74
2023/04/11 19:31:56;;;;;;;5.50;2.70;;;;;;;3.82;100.00;96305.06;10449013;28;20199;-74
2023/04/11 19:36:56;;;;;;;4.93;3.30;;;;;;;3.56;100.00;96291.66;10448866;28;20211;-74
2023/04/11 19:41:56;;;;;;;8.43;3.63;;;;;;;3.34;100.00;96295.16;10448505;28;20382;-74
2023/04/11 19:47:23;;;;;;;5.87;3.40;;;;;;;3.25;100.00;96281.16;10448965;28;20196;-75
2023/04/11 19:52:25;;;;;;;9.60;3.23;;;;;;;2.88;100.00;96273.69;10446608;28;20578;-75
2023/04/11 19:57:32;;;;;;;4.23;2.50;;;;;;;2.56;100.00;96260.66;10456076;28;20212;-75
2023/04/11 20:02:32;;;;;;;7.43;4.33;;;;;;;2.17;100.00;96267.94;10456453;28;20193;-74
2023/04/11 20:07:45;;;;;;;8.73;4.00;;;;;;;1.89;100.00;96282.91;10456209;28;20644;-74
2023/04/11 20:12:51;;;;;;;16.23;6.17;;;;;;;1.66;100.00;96267.34;10456003;28;20227;-75
2023/04/11 20:17:55;;;;;;;21.67;10.53;;;;;;;1.68;100.00;96273.19;10437753;28;20227;-74
2023/04/11 20:22:56;;;;;;;7.87;4.70;;;;;;;1.55;100.00;96269.91;10456012;28;20215;-74
2023/04/11 20:28:03;;;;;;;10.97;6.03;;;;;;;1.37;100.00;96277.19;10455546;28;20561;-74
2023/04/11 20:33:25;;;;;;;;;;;;;;;;;;;;;
2023/04/11 20:39:06;;;;;;;5.87;3.40;;;;;;;1.16;100.00;96264.06;10435241;28;20203;-74
2023/04/11 20:44:06;;;;;;;6.03;4.00;;;;;;;0.96;100.00;96268.88;10397163;28;20224;-74
2023/04/11 20:49:06;;;;;;;9.60;4.13;;;;;;;1.05;100.00;96263.06;10413464;28;20212;-74
2023/04/11 20:54:07;;;;;;;4.90;3.30;;;;;;;1.04;100.00;96260.59;10412898;28;20298;-74
2023/04/11 20:59:11;;;;;;;7.23;3.63;;;;;;;0.94;100.00;96257.03;10413690;28;20191;-74
2023/04/11 21:04:11;;;;;;;7.03;3.57;;;;;;;0.99;100.00;96260.94;10412568;28;20188;-74
2023/04/11 21:09:12;;;;;;;8.03;4.37;;;;;;;0.91;100.00;96245.19;10411746;28;20204;-73
2023/04/11 21:14:12;;;;;;;12.97;4.83;;;;;;;0.97;100.00;96244.75;10412932;28;20231;-74
2023/04/11 21:19:12;;;;;;;5.87;4.27;;;;;;;0.92;100.00;96241.69;10412282;28;20192;-74
2023/04/11 21:24:13;;;;;;;6.37;4.00;;;;;;;0.93;100.00;96248.47;10412299;28;20325;-74
2023/04/11 21:29:13;;;;;;;8.23;4.17;;;;;;;0.87;100.00;96259.22;10412420;28;20670;-74
2023/04/11 21:34:13;;;;;;;11.00;4.03;;;;;;;0.73;100.00;96246.47;10411947;28;20590;-74
2023/04/11 21:39:14;;;;;;;11.43;4.23;;;;;;;0.42;100.00;96249.41;10411749;28;20605;-74
2023/04/11 21:44:15;;;;;;;7.57;4.43;;;;;;;0.64;100.00;96264.22;10449537;28;20677;-73
2023/04/11 21:49:15;;;;;;;6.83;3.93;;;;;;;0.62;100.00;96262.69;10452029;28;20221;-74
2023/04/11 21:54:15;;;;;;;7.23;4.03;;;;;;;0.43;100.00;96260.53;10450384;28;20208;-73
2023/04/11 21:59:16;;;;;;;7.23;3.33;;;;;;;0.54;100.00;96263.22;10449280;28;20201;-73
2023/04/11 22:04:21;;;;;;;6.57;4.03;;;;;;;0.51;100.00;96266.00;10453183;28;20184;-73
2023/04/11 22:09:22;;;;;;;5.40;3.27;;;;;;;0.43;100.00;96252.81;10452227;28;20199;-73
2023/04/11 22:14:25;;;;;;;4.90;3.50;;;;;;;0.39;100.00;96259.94;10451491;28;20227;-73
2023/04/11 22:19:27;;;;;;;4.27;3.23;;;;;;;0.47;100.00;96260.22;10451426;28;20201;-74
2023/04/11 22:24:30;;;;;;;5.77;3.53;;;;;;;0.48;100.00;96263.63;10451397;28;20660;-74
2023/04/11 22:29:33;;;;;;;7.50;4.10;;;;;;;0.27;100.00;96264.16;10451286;28;20195;-74
2023/04/11 22:34:33;;;;;;;8.33;3.83;;;;;;;0.22;100.00;96266.22;10451029;28;20257;-74
2023/04/11 22:39:35;;;;;;;7.87;4.20;;;;;;;0.08;100.00;96287.75;10451116;28;20211;-73
2023/04/11 22:44:35;;;;;;;5.37;3.47;;;;;;;-0.03;100.00;96270.47;10450640;28;20249;-74
2023/04/11 22:49:39;;;;;;;7.77;3.53;;;;;;;0.00;100.00;96274.59;10451188;28;20291;-74
2023/04/11 22:54:40;;;;;;;8.57;4.20;;;;;;;-0.11;100.00;96283.00;10450586;28;20259;-73
2023/04/11 22:59:41;;;;;;;9.23;4.67;;;;;;;-0.10;100.00;96276.94;10432789;28;20282;-74
2023/04/11 23:04:41;;;;;;;5.53;3.50;;;;;;;-0.09;100.00;96268.28;10431956;28;20210;-75
2023/04/11 23:09:43;;;;;;;8.73;4.43;;;;;;;-0.12;100.00;96263.34;10416220;28;20198;-73
2023/04/11 23:14:45;;;;;;;7.47;4.17;;;;;;;-0.14;100.00;96251.50;10450209;28;20752;-74
2023/04/11 23:19:46;;;;;;;7.30;4.23;;;;;;;-0.10;100.00;96258.91;10450345;28;20196;-74
2023/04/11 23:24:46;;;;;;;6.17;4.23;;;;;;;-0.18;100.00;96238.00;10450258;28;20599;-74
2023/04/11 23:29:50;;;;;;;5.57;4.40;;;;;;;-0.28;100.00;96218.94;10452875;28;20207;-74
2023/04/11 23:34:50;;;;;;;7.10;4.10;;;;;;;-0.14;100.00;96212.88;10457464;28;20702;-74